createdAt,value
2023-04-23T00:00:54.867Z,984.76
2023-04-23T00:01:54.429Z,984.82
2023-04-23T00:02:53.514Z,984.71
2023-04-23T00:03:53.497Z,984.78
2023-04-23T00:04:53.510Z,984.79
2023-04-23T00:05:54.400Z,984.72
2023-04-23T00:06:53.379Z,984.74
2023-04-23T00:07:53.357Z,984.74
2023-04-23T00:08:53.358Z,984.72
2023-04-23T00:09:53.360Z,984.80
2023-04-23T00:10:53.328Z,984.76
2023-04-23T00:11:53.335Z,984.74
2023-04-23T00:12:53.312Z,984.80
2023-04-23T00:13:53.304Z,984.77
2023-04-23T00:14:53.288Z,984.80
2023-04-23T00:15:53.402Z,984.74
2023-04-23T00:16:53.276Z,984.74
2023-04-23T00:17:53.341Z,984.72
2023-04-23T00:18:53.329Z,984.74
2023-04-23T00:19:53.245Z,984.75
2023-04-23T00:20:53.224Z,984.72
2023-04-23T00:21:53.225Z,984.69
2023-04-23T00:22:53.202Z,984.70
2023-04-23T00:23:53.190Z,984.66
2023-04-23T00:24:53.187Z,984.82
2023-04-23T00:25:53.172Z,984.81
2023-04-23T00:26:53.182Z,984.73
2023-04-23T00:27:53.161Z,984.72
2023-04-23T00:28:53.141Z,984.69
2023-04-23T00:29:53.136Z,984.73
2023-04-23T00:30:53.128Z,984.67
2023-04-23T00:31:53.179Z,984.71
2023-04-23T00:32:53.146Z,984.65
2023-04-23T00:33:53.093Z,984.66
2023-04-23T00:34:53.090Z,984.62
2023-04-23T00:35:53.068Z,984.62
2023-04-23T00:36:53.081Z,984.64
2023-04-23T00:37:53.066Z,984.59
2023-04-23T00:38:53.049Z,984.65
2023-04-23T00:39:53.052Z,984.72
2023-04-23T00:40:53.056Z,984.68
2023-04-23T00:41:53.036Z,984.71
2023-04-23T00:42:53.014Z,984.65
2023-04-23T00:43:53.026Z,984.57
2023-04-23T00:44:53.000Z,984.64
2023-04-23T00:45:53.015Z,984.58
2023-04-23T00:46:52.983Z,984.51
2023-04-23T00:47:52.991Z,984.54
2023-04-23T00:48:52.957Z,984.60
2023-04-23T00:49:52.945Z,984.53
2023-04-23T00:50:52.935Z,984.57
2023-04-23T00:51:52.938Z,984.63
2023-04-23T00:52:52.923Z,984.57
2023-04-23T00:53:52.924Z,984.54
2023-04-23T00:54:52.897Z,984.54
2023-04-23T00:55:52.901Z,984.51
2023-04-23T00:56:52.900Z,984.51
2023-04-23T00:57:52.871Z,984.56
2023-04-23T00:58:52.855Z,984.48
2023-04-23T00:59:52.862Z,984.54
2023-04-23T01:00:52.862Z,984.55
2023-04-23T01:01:53.840Z,984.46
2023-04-23T01:02:53.031Z,984.55
2023-04-23T01:03:53.057Z,984.54
2023-04-23T01:04:52.800Z,984.53
2023-04-23T01:05:52.782Z,984.54
2023-04-23T01:06:52.791Z,984.45
2023-04-23T01:07:52.775Z,984.53
2023-04-23T01:08:52.767Z,984.39
2023-04-23T01:09:52.745Z,984.50
2023-04-23T01:10:52.759Z,984.43
2023-04-23T01:11:52.736Z,984.43
2023-04-23T01:12:52.723Z,984.45
2023-04-23T01:13:52.708Z,984.46
2023-04-23T01:14:52.701Z,984.41
2023-04-23T01:15:52.704Z,984.46
2023-04-23T01:16:52.759Z,984.40
2023-04-23T01:17:52.751Z,984.51
2023-04-23T01:18:52.663Z,984.42
2023-04-23T01:19:52.650Z,984.42
2023-04-23T01:20:52.660Z,984.38
2023-04-23T01:21:52.636Z,984.46
2023-04-23T01:22:52.625Z,984.38
2023-04-23T01:23:52.621Z,984.44
2023-04-23T01:24:52.602Z,984.42
2023-04-23T01:25:52.641Z,984.42
2023-04-23T01:26:52.587Z,984.44
2023-04-23T01:27:52.583Z,984.41
2023-04-23T01:28:52.578Z,984.44
2023-04-23T01:29:52.557Z,984.41
2023-04-23T01:30:52.569Z,984.33
2023-04-23T01:31:52.546Z,984.36
2023-04-23T01:32:52.558Z,984.45
2023-04-23T01:33:52.517Z,984.41
2023-04-23T01:34:52.509Z,984.40
2023-04-23T01:35:52.513Z,984.38
2023-04-23T01:36:52.489Z,984.45
2023-04-23T01:37:52.540Z,984.39
2023-04-23T01:38:52.466Z,984.39
2023-04-23T01:39:52.466Z,984.44
2023-04-23T01:40:52.462Z,984.45
2023-04-23T01:41:52.439Z,984.46
2023-04-23T01:42:52.472Z,984.38
2023-04-23T01:43:52.427Z,984.43
2023-04-23T01:44:52.399Z,984.46
2023-04-23T01:45:52.451Z,984.48
2023-04-23T01:46:52.388Z,984.42
2023-04-23T01:47:52.388Z,984.46
2023-04-23T01:48:52.367Z,984.52
2023-04-23T01:49:52.362Z,984.47
2023-04-23T01:50:52.357Z,984.46
2023-04-23T01:51:52.332Z,984.42
2023-04-23T01:52:52.333Z,984.49
2023-04-23T01:53:52.316Z,984.48
2023-04-23T01:54:52.308Z,984.47
2023-04-23T01:55:52.301Z,984.48
2023-04-23T01:56:52.285Z,984.45
2023-04-23T01:57:52.273Z,984.50
2023-04-23T01:58:52.268Z,984.46
2023-04-23T01:59:52.255Z,984.48
2023-04-23T02:00:52.267Z,984.43
2023-04-23T02:01:52.252Z,984.43
2023-04-23T02:02:52.369Z,984.40
2023-04-23T02:03:52.301Z,984.50
2023-04-23T02:04:52.209Z,984.47
2023-04-23T02:05:52.206Z,984.44
2023-04-23T02:06:52.202Z,984.49
2023-04-23T02:07:52.200Z,984.52
2023-04-23T02:08:52.165Z,984.50
2023-04-23T02:09:52.150Z,984.49
2023-04-23T02:10:52.156Z,984.49
2023-04-23T02:11:52.136Z,984.48
2023-04-23T02:12:52.121Z,984.52
2023-04-23T02:13:52.112Z,984.45
2023-04-23T02:14:52.116Z,984.51
2023-04-23T02:15:52.131Z,984.50
2023-04-23T02:16:52.097Z,984.55
2023-04-23T02:17:52.128Z,984.48
2023-04-23T02:18:52.066Z,984.50
2023-04-23T02:19:52.059Z,984.46
2023-04-23T02:20:52.056Z,984.49
2023-04-23T02:21:52.033Z,984.52
2023-04-23T02:22:53.041Z,984.43
2023-04-23T02:23:52.010Z,984.40
2023-04-23T02:24:52.007Z,984.43
2023-04-23T02:25:52.009Z,984.42
2023-04-23T02:26:51.989Z,984.42
2023-04-23T02:27:51.964Z,984.45
2023-04-23T02:28:52.000Z,984.46
2023-04-23T02:29:51.960Z,984.43
2023-04-23T02:30:51.962Z,984.41
2023-04-23T02:31:51.986Z,984.43
2023-04-23T02:32:51.959Z,984.56
2023-04-23T02:33:51.917Z,984.46
2023-04-23T02:34:51.900Z,984.51
2023-04-23T02:35:51.889Z,984.44
2023-04-23T02:36:51.880Z,984.47
2023-04-23T02:37:51.869Z,984.52
2023-04-23T02:38:51.864Z,984.49
2023-04-23T02:39:51.849Z,984.44
2023-04-23T02:40:52.851Z,984.54
2023-04-23T02:41:51.835Z,984.47
2023-04-23T02:42:51.810Z,984.50
2023-04-23T02:43:51.807Z,984.47
2023-04-23T02:44:51.796Z,984.45
2023-04-23T02:45:51.793Z,984.37
2023-04-23T02:46:51.837Z,984.48
2023-04-23T02:47:51.809Z,984.52
2023-04-23T02:48:51.762Z,984.50
2023-04-23T02:49:51.785Z,984.50
2023-04-23T02:50:51.740Z,984.45
2023-04-23T02:51:51.746Z,984.46
2023-04-23T02:52:51.727Z,984.52
2023-04-23T02:53:51.703Z,984.51
2023-04-23T02:54:51.695Z,984.55
2023-04-23T02:55:51.683Z,984.46
2023-04-23T02:56:51.690Z,984.50
2023-04-23T02:57:51.651Z,984.52
2023-04-23T02:58:52.675Z,984.48
2023-04-23T02:59:51.644Z,984.44
2023-04-23T03:00:51.684Z,984.50
2023-04-23T03:01:51.694Z,984.41
2023-04-23T03:02:51.694Z,984.51
2023-04-23T03:03:51.704Z,984.57
2023-04-23T03:04:51.595Z,984.44
2023-04-23T03:05:51.590Z,984.56
2023-04-23T03:06:51.596Z,984.46
2023-04-23T03:07:51.580Z,984.55
2023-04-23T03:08:51.555Z,984.63
2023-04-23T03:09:51.576Z,984.47
2023-04-23T03:10:51.542Z,984.52
2023-04-23T03:11:51.542Z,984.43
2023-04-23T03:12:51.519Z,984.53
2023-04-23T03:13:51.536Z,984.50
2023-04-23T03:14:51.500Z,984.57
2023-04-23T03:15:51.489Z,984.55
2023-04-23T03:16:51.503Z,984.42
2023-04-23T03:17:51.501Z,984.52
2023-04-23T03:18:51.486Z,984.55
2023-04-23T03:19:51.455Z,984.61
2023-04-23T03:20:51.457Z,984.52
2023-04-23T03:21:51.450Z,984.63
2023-04-23T03:22:51.419Z,984.54
2023-04-23T03:23:51.415Z,984.60
2023-04-23T03:24:51.407Z,984.56
2023-04-23T03:25:51.392Z,984.51
2023-04-23T03:26:51.404Z,984.57
2023-04-23T03:27:51.390Z,984.61
2023-04-23T03:28:51.378Z,984.50
2023-04-23T03:29:51.351Z,984.54
2023-04-23T03:30:51.390Z,984.53
2023-04-23T03:31:51.342Z,984.58
2023-04-23T03:32:51.375Z,984.55
2023-04-23T03:33:51.320Z,984.56
2023-04-23T03:34:51.312Z,984.59
2023-04-23T03:35:51.303Z,984.64
2023-04-23T03:36:51.316Z,984.54
2023-04-23T03:37:51.272Z,984.67
2023-04-23T03:38:51.258Z,984.58
2023-04-23T03:39:51.264Z,984.54
2023-04-23T03:40:51.255Z,984.62
2023-04-23T03:41:51.237Z,984.54
2023-04-23T03:42:51.242Z,984.60
2023-04-23T03:43:51.232Z,984.60
2023-04-23T03:44:51.206Z,984.60
2023-04-23T03:45:51.280Z,984.65
2023-04-23T03:46:51.212Z,984.72
2023-04-23T03:47:51.179Z,984.76
2023-04-23T03:48:51.164Z,984.76
2023-04-23T03:49:51.148Z,984.88
2023-04-23T03:50:51.144Z,984.86
2023-04-23T03:51:51.145Z,984.90
2023-04-23T03:52:51.124Z,984.89
2023-04-23T03:53:51.122Z,985.00
2023-04-23T03:54:51.106Z,985.02
2023-04-23T03:55:51.103Z,984.99
2023-04-23T03:56:51.102Z,985.00
2023-04-23T03:57:51.078Z,985.03
2023-04-23T03:58:51.069Z,985.03
2023-04-23T03:59:51.054Z,985.05
2023-04-23T04:00:51.053Z,985.07
2023-04-23T04:01:51.063Z,985.09
2023-04-23T04:02:51.203Z,985.12
2023-04-23T04:03:51.362Z,985.14
2023-04-23T04:04:51.194Z,985.18
2023-04-23T04:05:51.098Z,985.16
2023-04-23T04:06:50.993Z,985.24
2023-04-23T04:07:50.983Z,985.21
2023-04-23T04:08:50.961Z,985.22
2023-04-23T04:09:50.958Z,985.21
2023-04-23T04:10:50.948Z,985.22
2023-04-23T04:11:52.868Z,985.29
2023-04-23T04:12:50.928Z,985.20
2023-04-23T04:13:50.926Z,985.20
2023-04-23T04:14:50.913Z,985.23
2023-04-23T04:15:50.917Z,985.25
2023-04-23T04:16:50.885Z,985.20
2023-04-23T04:17:50.914Z,985.21
2023-04-23T04:18:50.871Z,985.26
2023-04-23T04:19:50.857Z,985.27
2023-04-23T04:20:50.845Z,985.25
2023-04-23T04:21:50.832Z,985.35
2023-04-23T04:22:50.840Z,985.33
2023-04-23T04:23:50.814Z,985.33
2023-04-23T04:24:50.807Z,985.30
2023-04-23T04:25:50.799Z,985.26
2023-04-23T04:26:50.788Z,985.25
2023-04-23T04:27:50.786Z,985.29
2023-04-23T04:28:50.765Z,985.28
2023-04-23T04:29:50.774Z,985.22
2023-04-23T04:30:50.747Z,985.27
2023-04-23T04:31:50.947Z,985.21
2023-04-23T04:32:50.809Z,985.22
2023-04-23T04:33:50.723Z,985.29
2023-04-23T04:34:50.712Z,985.24
2023-04-23T04:35:50.700Z,985.28
2023-04-23T04:36:50.684Z,985.30
2023-04-23T04:37:50.688Z,985.27
2023-04-23T04:38:50.662Z,985.24
2023-04-23T04:39:50.663Z,985.24
2023-04-23T04:40:50.660Z,985.32
2023-04-23T04:41:50.642Z,985.29
2023-04-23T04:42:50.646Z,985.28
2023-04-23T04:43:50.618Z,985.29
2023-04-23T04:44:50.610Z,985.39
2023-04-23T04:45:50.599Z,985.33
2023-04-23T04:46:50.645Z,985.36
2023-04-23T04:47:50.610Z,985.32
2023-04-23T04:48:50.569Z,985.33
2023-04-23T04:49:50.554Z,985.30
2023-04-23T04:50:50.547Z,985.32
2023-04-23T04:51:50.536Z,985.36
2023-04-23T04:52:50.549Z,985.34
2023-04-23T04:53:50.538Z,985.28
2023-04-23T04:54:50.506Z,985.37
2023-04-23T04:55:50.496Z,985.33
2023-04-23T04:56:50.484Z,985.35
2023-04-23T04:57:50.491Z,985.37
2023-04-23T04:58:50.465Z,985.36
2023-04-23T04:59:50.455Z,985.36
2023-04-23T05:00:50.487Z,985.35
2023-04-23T05:01:50.440Z,985.41
2023-04-23T05:02:50.557Z,985.40
2023-04-23T05:03:50.564Z,985.36
2023-04-23T05:04:50.428Z,985.31
2023-04-23T05:05:50.403Z,985.38
2023-04-23T05:06:50.388Z,985.40
2023-04-23T05:07:50.393Z,985.29
2023-04-23T05:08:50.369Z,985.37
2023-04-23T05:09:50.359Z,985.34
2023-04-23T05:10:50.381Z,985.37
2023-04-23T05:11:50.334Z,985.38
2023-04-23T05:12:50.341Z,985.33
2023-04-23T05:13:50.364Z,985.38
2023-04-23T05:14:51.749Z,985.39
2023-04-23T05:15:50.298Z,985.40
2023-04-23T05:16:50.327Z,985.41
2023-04-23T05:17:50.348Z,985.36
2023-04-23T05:18:50.273Z,985.33
2023-04-23T05:19:50.260Z,985.38
2023-04-23T05:20:50.258Z,985.36
2023-04-23T05:21:50.245Z,985.50
2023-04-23T05:22:50.244Z,985.38
2023-04-23T05:23:50.220Z,985.38
2023-04-23T05:24:50.214Z,985.46
2023-04-23T05:25:50.678Z,985.39
2023-04-23T05:26:50.296Z,985.37
2023-04-23T05:27:50.183Z,985.41
2023-04-23T05:28:50.176Z,985.35
2023-04-23T05:29:50.160Z,985.34
2023-04-23T05:30:50.148Z,985.40
2023-04-23T05:31:50.338Z,985.40
2023-04-23T05:32:50.166Z,985.43
2023-04-23T05:33:50.910Z,985.36
2023-04-23T05:34:50.109Z,985.42
2023-04-23T05:35:50.097Z,985.42
2023-04-23T05:36:50.092Z,985.48
2023-04-23T05:37:50.083Z,985.49
2023-04-23T05:38:50.165Z,985.43
2023-04-23T05:39:50.060Z,985.51
2023-04-23T05:40:50.043Z,985.54
2023-04-23T05:41:50.029Z,985.52
2023-04-23T05:42:50.041Z,985.54
2023-04-23T05:43:50.026Z,985.59
2023-04-23T05:44:50.003Z,985.54
2023-04-23T05:45:50.049Z,985.61
2023-04-23T05:46:49.996Z,985.62
2023-04-23T05:47:50.008Z,985.64
2023-04-23T05:48:49.964Z,985.62
2023-04-23T05:49:49.957Z,985.69
2023-04-23T05:50:49.953Z,985.65
2023-04-23T05:51:49.936Z,985.70
2023-04-23T05:52:49.940Z,985.69
2023-04-23T05:53:49.913Z,985.64
2023-04-23T05:54:49.908Z,985.66
2023-04-23T05:55:49.899Z,985.65
2023-04-23T05:56:49.884Z,985.62
2023-04-23T05:57:49.887Z,985.63
2023-04-23T05:58:49.868Z,985.66
2023-04-23T05:59:49.853Z,985.64
2023-04-23T06:00:49.883Z,985.66
2023-04-23T06:01:49.908Z,985.64
2023-04-23T06:02:49.928Z,985.66
2023-04-23T06:03:49.897Z,985.71
2023-04-23T06:04:50.736Z,985.78
2023-04-23T06:05:49.840Z,985.68
2023-04-23T06:06:49.799Z,985.75
2023-04-23T06:07:49.817Z,985.72
2023-04-23T06:08:49.767Z,985.66
2023-04-23T06:09:49.752Z,985.82
2023-04-23T06:10:49.753Z,985.76
2023-04-23T06:11:49.740Z,985.79
2023-04-23T06:12:49.741Z,985.77
2023-04-23T06:13:49.725Z,985.82
2023-04-23T06:14:49.712Z,985.78
2023-04-23T06:15:49.717Z,985.77
2023-04-23T06:16:49.694Z,985.80
2023-04-23T06:17:49.712Z,985.78
2023-04-23T06:18:50.617Z,985.75
2023-04-23T06:19:49.658Z,985.90
2023-04-23T06:20:49.648Z,985.74
2023-04-23T06:21:49.635Z,985.72
2023-04-23T06:22:49.680Z,985.76
2023-04-23T06:23:49.625Z,985.66
2023-04-23T06:24:49.611Z,985.73
2023-04-23T06:25:52.471Z,985.74
2023-04-23T06:26:49.598Z,985.63
2023-04-23T06:27:49.577Z,985.72
2023-04-23T06:28:49.587Z,985.70
2023-04-23T06:29:49.564Z,985.75
2023-04-23T06:30:49.553Z,985.72
2023-04-23T06:31:49.630Z,985.75
2023-04-23T06:32:49.543Z,985.69
2023-04-23T06:33:49.531Z,985.62
2023-04-23T06:34:59.350Z,985.68
2023-04-23T06:35:51.509Z,985.65
2023-04-23T06:36:49.479Z,985.66
2023-04-23T06:37:49.464Z,985.62
2023-04-23T06:38:49.471Z,985.60
2023-04-23T06:39:49.452Z,985.57
2023-04-23T06:40:49.441Z,985.58
2023-04-23T06:41:49.445Z,985.59
2023-04-23T06:42:49.422Z,985.53
2023-04-23T06:43:49.429Z,985.61
2023-04-23T06:44:49.411Z,985.53
2023-04-23T06:45:49.398Z,985.54
2023-04-23T06:46:49.408Z,985.57
2023-04-23T06:47:49.466Z,985.56
2023-04-23T06:48:49.372Z,985.51
2023-04-23T06:49:49.349Z,985.56
2023-04-23T06:50:49.343Z,985.58
2023-04-23T06:51:49.327Z,985.56
2023-04-23T06:52:49.314Z,985.55
2023-04-23T06:53:49.324Z,985.53
2023-04-23T06:54:49.303Z,985.56
2023-04-23T06:55:49.282Z,985.52
2023-04-23T06:56:49.278Z,985.50
2023-04-23T06:57:49.264Z,985.52
2023-04-23T06:58:49.273Z,985.50
2023-04-23T06:59:49.254Z,985.51
2023-04-23T07:00:49.244Z,985.50
2023-04-23T07:01:49.222Z,985.54
2023-04-23T07:02:49.302Z,985.50
2023-04-23T07:03:49.354Z,985.59
2023-04-23T07:04:49.217Z,985.57
2023-04-23T07:05:49.206Z,985.50
2023-04-23T07:06:49.184Z,985.51
2023-04-23T07:07:49.177Z,985.47
2023-04-23T07:08:49.181Z,985.53
2023-04-23T07:09:49.158Z,985.52
2023-04-23T07:10:49.150Z,985.51
2023-04-23T07:11:49.149Z,985.54
2023-04-23T07:12:49.136Z,985.55
2023-04-23T07:13:49.126Z,985.50
2023-04-23T07:14:50.110Z,985.51
2023-04-23T07:15:49.153Z,985.50
2023-04-23T07:16:49.127Z,985.51
2023-04-23T07:17:49.205Z,985.52
2023-04-23T07:18:49.084Z,985.50
2023-04-23T07:19:49.079Z,985.48
2023-04-23T07:20:49.058Z,985.50
2023-04-23T07:21:49.052Z,985.43
2023-04-23T07:22:49.038Z,985.46
2023-04-23T07:23:49.039Z,985.48
2023-04-23T07:24:49.019Z,985.56
2023-04-23T07:25:49.016Z,985.57
2023-04-23T07:26:48.999Z,985.45
2023-04-23T07:27:48.992Z,985.42
2023-04-23T07:28:50.752Z,985.48
2023-04-23T07:29:48.971Z,985.48
2023-04-23T07:30:48.963Z,985.50
2023-04-23T07:31:48.986Z,985.47
2023-04-23T07:32:48.963Z,985.48
2023-04-23T07:33:48.931Z,985.50
2023-04-23T07:34:48.939Z,985.45
2023-04-23T07:35:48.916Z,985.46
2023-04-23T07:36:48.905Z,985.50
2023-04-23T07:37:48.899Z,985.48
2023-04-23T07:38:48.885Z,985.43
2023-04-23T07:39:49.157Z,985.46
2023-04-23T07:40:48.868Z,985.39
2023-04-23T07:41:48.858Z,985.42
2023-04-23T07:42:48.841Z,985.33
2023-04-23T07:43:48.834Z,985.40
2023-04-23T07:44:48.839Z,985.34
2023-04-23T07:45:48.825Z,985.36
2023-04-23T07:46:48.798Z,985.36
2023-04-23T07:47:48.833Z,985.29
2023-04-23T07:48:48.796Z,985.37
2023-04-23T07:49:48.783Z,985.28
2023-04-23T07:50:48.770Z,985.39
2023-04-23T07:51:48.753Z,985.30
2023-04-23T07:52:48.744Z,985.34
2023-04-23T07:53:48.735Z,985.38
2023-04-23T07:54:48.740Z,985.40
2023-04-23T07:55:48.729Z,985.39
2023-04-23T07:56:48.707Z,985.39
2023-04-23T07:57:48.693Z,985.34
2023-04-23T07:58:48.692Z,985.35
2023-04-23T07:59:48.685Z,985.42
2023-04-23T08:00:48.667Z,985.34
2023-04-23T08:01:48.650Z,985.45
2023-04-23T08:02:48.740Z,985.45
2023-04-23T08:03:49.028Z,985.50
2023-04-23T08:04:48.931Z,985.53
2023-04-23T08:05:48.614Z,985.53
2023-04-23T08:06:48.610Z,985.61
2023-04-23T08:07:48.600Z,985.56
2023-04-23T08:08:48.666Z,985.43
2023-04-23T08:09:49.618Z,985.43
2023-04-23T08:10:48.559Z,985.50
2023-04-23T08:11:49.486Z,985.48
2023-04-23T08:12:48.692Z,985.44
2023-04-23T08:13:48.543Z,985.42
2023-04-23T08:14:49.202Z,985.44
2023-04-23T08:15:48.539Z,985.54
2023-04-23T08:16:48.499Z,985.54
2023-04-23T08:17:48.522Z,985.47
2023-04-23T08:19:03.724Z,985.52
2023-04-23T08:19:50.492Z,985.52
2023-04-23T08:20:49.185Z,985.53
2023-04-23T08:21:48.453Z,985.46
2023-04-23T08:22:48.446Z,985.43
2023-04-23T08:23:48.436Z,985.43
2023-04-23T08:24:48.442Z,985.42
2023-04-23T08:25:48.421Z,985.40
2023-04-23T08:26:48.399Z,985.37
2023-04-23T08:27:48.394Z,985.32
2023-04-23T08:28:48.383Z,985.28
2023-04-23T08:29:48.395Z,985.30
2023-04-23T08:30:48.371Z,985.19
2023-04-23T08:31:48.368Z,985.17
2023-04-23T08:32:48.411Z,985.11
2023-04-23T08:33:48.334Z,985.25
2023-04-23T08:34:48.337Z,985.24
2023-04-23T08:35:48.321Z,985.20
2023-04-23T08:36:48.306Z,985.15
2023-04-23T08:37:48.295Z,985.19
2023-04-23T08:38:48.289Z,985.20
2023-04-23T08:39:48.285Z,985.21
2023-04-23T08:40:48.268Z,985.16
2023-04-23T08:41:48.279Z,985.11
2023-04-23T08:42:48.255Z,985.06
2023-04-23T08:43:48.257Z,985.01
2023-04-23T08:44:48.234Z,985.02
2023-04-23T08:45:48.231Z,985.01
2023-04-23T08:46:48.235Z,985.04
2023-04-23T08:47:48.255Z,985.00
2023-04-23T08:48:48.205Z,985.01
2023-04-23T08:49:48.188Z,985.06
2023-04-23T08:50:48.167Z,985.08
2023-04-23T08:51:48.156Z,985.21
2023-04-23T08:52:48.153Z,985.12
2023-04-23T08:53:48.132Z,985.04
2023-04-23T08:54:48.147Z,984.97
2023-04-23T08:55:48.121Z,984.94
2023-04-23T08:56:48.111Z,984.91
2023-04-23T08:57:48.101Z,984.95
2023-04-23T08:58:48.072Z,984.97
2023-04-23T08:59:49.086Z,984.98
2023-04-23T09:00:48.102Z,984.94
2023-04-23T09:01:48.073Z,984.96
2023-04-23T09:02:48.241Z,984.85
2023-04-23T09:03:48.154Z,984.86
2023-04-23T09:04:50.772Z,985.03
2023-04-23T09:05:48.025Z,985.05
2023-04-23T09:06:48.008Z,985.06
2023-04-23T09:07:48.006Z,985.12
2023-04-23T09:08:48.005Z,985.09
2023-04-23T09:09:48.013Z,985.15
2023-04-23T09:10:47.964Z,985.15
2023-04-23T09:11:47.959Z,985.15
2023-04-23T09:12:47.951Z,985.09
2023-04-23T09:13:47.931Z,985.14
2023-04-23T09:14:47.940Z,985.15
2023-04-23T09:15:47.924Z,985.15
2023-04-23T09:16:47.942Z,985.10
2023-04-23T09:17:47.954Z,985.05
2023-04-23T09:18:47.882Z,985.11
2023-04-23T09:19:48.742Z,985.13
2023-04-23T09:20:47.873Z,985.13
2023-04-23T09:21:47.854Z,985.06
2023-04-23T09:22:48.026Z,985.10
2023-04-23T09:23:47.857Z,985.05
2023-04-23T09:24:48.892Z,985.03
2023-04-23T09:25:47.820Z,985.01
2023-04-23T09:28:15.015Z,985.01
2023-04-23T09:29:15.086Z,985.01
2023-04-23T09:30:15.009Z,985.02
2023-04-23T09:31:14.985Z,984.89
2023-04-23T09:32:15.065Z,984.89
2023-04-23T09:33:14.970Z,984.80
2023-04-23T09:34:14.946Z,984.84
2023-04-23T09:35:17.167Z,984.85
2023-04-23T09:36:14.978Z,984.83
2023-04-23T09:37:14.926Z,984.81
2023-04-23T09:38:14.938Z,984.77
2023-04-23T09:39:14.937Z,984.81
2023-04-23T09:40:14.927Z,984.83
2023-04-23T09:41:14.882Z,984.73
2023-04-23T09:42:14.873Z,984.83
2023-04-23T09:43:14.863Z,984.81
2023-04-23T09:44:14.871Z,984.81
2023-04-23T09:45:14.864Z,984.81
2023-04-23T09:46:14.867Z,984.74
2023-04-23T09:47:14.819Z,984.78
2023-04-23T09:48:14.813Z,984.75
2023-04-23T09:49:14.808Z,984.75
2023-04-23T09:50:14.813Z,984.79
2023-04-23T09:51:14.814Z,984.81
2023-04-23T09:52:14.777Z,984.80
2023-04-23T09:53:14.776Z,984.82
2023-04-23T09:54:14.755Z,984.81
2023-04-23T09:55:14.752Z,984.76
2023-04-23T09:56:15.737Z,984.78
2023-04-23T09:57:14.737Z,984.74
2023-04-23T09:58:14.725Z,984.74
2023-04-23T09:59:15.708Z,984.72
2023-04-23T10:00:15.407Z,984.71
2023-04-23T10:01:14.709Z,984.78
2023-04-23T10:02:14.801Z,984.72
2023-04-23T10:03:14.850Z,984.71
2023-04-23T10:04:14.952Z,984.76
2023-04-23T10:06:25.926Z,984.81
2023-04-23T10:07:20.126Z,984.75
2023-04-23T10:08:15.615Z,984.72
2023-04-23T10:09:14.604Z,984.75
2023-04-23T10:10:14.592Z,984.75
2023-04-23T10:13:15.563Z,984.74
2023-04-23T10:14:14.550Z,984.79
2023-04-23T10:15:14.556Z,984.73
2023-04-23T10:16:22.448Z,984.81
2023-04-23T10:17:16.524Z,984.73
2023-04-23T10:18:14.513Z,984.74
2023-04-23T10:19:14.509Z,984.74
2023-04-23T10:20:14.505Z,984.72
2023-04-23T10:21:14.492Z,984.67
2023-04-23T10:23:15.468Z,984.76
2023-04-23T10:24:14.451Z,984.71
2023-04-23T10:25:14.449Z,984.68
2023-04-23T10:26:14.462Z,984.79
2023-04-23T10:27:28.446Z,984.71
2023-04-23T10:28:16.420Z,984.73
2023-04-23T10:29:14.409Z,984.78
2023-04-23T10:30:14.399Z,984.72
2023-04-23T10:31:14.424Z,984.72
2023-04-23T10:32:14.385Z,984.68
2023-04-23T10:33:26.487Z,984.72
2023-04-23T10:34:16.381Z,984.69
2023-04-23T10:35:14.350Z,984.72
2023-04-23T10:36:14.359Z,984.71
2023-04-23T10:37:14.340Z,984.70
2023-04-23T10:38:14.326Z,984.74
2023-04-23T10:39:20.808Z,984.75
2023-04-23T10:40:15.436Z,984.75
2023-04-23T10:41:14.305Z,984.72
2023-04-23T10:42:14.295Z,984.64
2023-04-23T10:43:14.270Z,984.69
2023-04-23T10:44:16.057Z,984.62
2023-04-23T10:45:23.546Z,984.67
2023-04-23T10:46:16.304Z,984.64
2023-04-23T10:47:14.267Z,984.68
2023-04-23T10:48:14.245Z,984.67
2023-04-23T10:49:14.226Z,984.67
2023-04-23T10:50:14.230Z,984.57
2023-04-23T10:52:19.539Z,984.52
2023-04-23T10:53:16.168Z,984.42
2023-04-23T10:54:14.160Z,984.42
2023-04-23T10:55:14.167Z,984.42
2023-04-23T10:56:14.154Z,984.43
2023-04-23T10:57:14.226Z,984.39
2023-04-23T10:58:14.120Z,984.41
2023-04-23T10:59:14.119Z,984.45
2023-04-23T11:00:14.102Z,984.39
2023-04-23T11:01:14.111Z,984.34
2023-04-23T11:02:14.165Z,984.37
2023-04-23T11:03:14.175Z,984.41
2023-04-23T11:04:14.459Z,984.37
2023-04-23T11:05:14.055Z,984.35
2023-04-23T11:06:14.056Z,984.46
2023-04-23T11:07:14.044Z,984.31
2023-04-23T11:08:19.356Z,984.26
2023-04-23T11:09:16.017Z,984.34
2023-04-23T11:10:14.089Z,984.30
2023-04-23T11:11:14.013Z,984.31
2023-04-23T11:12:14.007Z,984.24
2023-04-23T11:13:13.982Z,984.32
2023-04-23T11:14:13.972Z,984.32
2023-04-23T11:15:13.970Z,984.33
2023-04-23T11:16:13.996Z,984.28
2023-04-23T11:17:13.944Z,984.32
2023-04-23T11:18:13.951Z,984.25
2023-04-23T11:19:13.931Z,984.23
2023-04-23T11:20:14.179Z,984.20
2023-04-23T11:21:13.908Z,984.15
2023-04-23T11:22:13.890Z,984.09
2023-04-23T11:23:13.879Z,984.14
2023-04-23T11:24:13.874Z,984.07
2023-04-23T11:25:13.880Z,984.17
2023-04-23T11:26:13.870Z,984.10
2023-04-23T11:27:13.844Z,984.12
2023-04-23T11:28:13.840Z,984.13
2023-04-23T11:29:13.827Z,984.10
2023-04-23T11:30:13.939Z,984.05
2023-04-23T11:31:13.818Z,984.14
2023-04-23T11:32:13.826Z,984.16
2023-04-23T11:33:13.817Z,984.16
2023-04-23T11:34:13.764Z,984.17
2023-04-23T11:35:14.756Z,984.18
2023-04-23T11:36:13.766Z,984.21
2023-04-23T11:37:13.742Z,984.24
2023-04-23T11:38:13.730Z,984.12
2023-04-23T11:39:13.723Z,984.12
2023-04-23T11:40:13.708Z,984.10
2023-04-23T11:41:13.708Z,984.06
2023-04-23T11:42:13.701Z,984.02
2023-04-23T11:43:13.681Z,983.98
2023-04-23T11:44:13.679Z,983.97
2023-04-23T11:45:13.673Z,984.07
2023-04-23T11:46:13.664Z,983.98
2023-04-23T11:47:13.681Z,983.97
2023-04-23T11:48:13.635Z,983.97
2023-04-23T11:49:13.634Z,983.94
2023-04-23T11:50:13.625Z,983.95
2023-04-23T11:51:13.622Z,983.94
2023-04-23T11:52:13.611Z,983.95
2023-04-23T11:53:13.587Z,984.02
2023-04-23T11:54:13.766Z,983.92
2023-04-23T11:55:13.563Z,983.94
2023-04-23T11:56:13.561Z,983.97
2023-04-23T11:57:13.574Z,983.96
2023-04-23T11:58:13.541Z,983.94
2023-04-23T11:59:13.531Z,983.92
2023-04-23T12:00:13.521Z,983.87
2023-04-23T12:01:13.524Z,983.88
2023-04-23T12:02:13.602Z,983.85
2023-04-23T12:03:13.544Z,983.85
2023-04-23T12:04:13.867Z,983.85
2023-04-23T12:05:13.533Z,983.80
2023-04-23T12:06:13.468Z,983.85
2023-04-23T12:07:23.433Z,983.79
2023-04-23T12:08:15.447Z,983.79
2023-04-23T12:09:13.438Z,983.80
2023-04-23T12:10:15.407Z,983.72
2023-04-23T12:11:13.408Z,983.89
2023-04-23T12:12:13.415Z,983.81
2023-04-23T12:13:14.277Z,983.85
2023-04-23T12:14:13.391Z,983.76
2023-04-23T12:15:13.370Z,983.78
2023-04-23T12:16:13.406Z,983.73
2023-04-23T12:17:13.367Z,983.75
2023-04-23T12:18:13.354Z,983.68
2023-04-23T12:19:13.331Z,983.71
2023-04-23T12:20:13.320Z,983.79
2023-04-23T12:21:13.334Z,983.71
2023-04-23T12:22:13.322Z,983.86
2023-04-23T12:23:13.319Z,983.76
2023-04-23T12:24:13.304Z,983.76
2023-04-23T12:25:13.275Z,983.77
2023-04-23T12:26:13.277Z,983.78
2023-04-23T12:27:13.253Z,983.81
2023-04-23T12:28:13.241Z,983.78
2023-04-23T12:29:13.246Z,983.80
2023-04-23T12:30:13.242Z,983.78
2023-04-23T12:31:13.277Z,983.75
2023-04-23T12:32:13.205Z,983.77
2023-04-23T12:33:13.234Z,983.70
2023-04-23T12:34:13.185Z,983.75
2023-04-23T12:35:13.197Z,983.71